Time;durP1;ratioP1;P1;durP2;ratioP2;P2;SDS_P1;SDS_P2;PMS_P1;PMS_P2;Temp;Humidity;BMP_temperature;BMP_pressure;BME280_temperature;BME280_humidity;BME280_pressure;Samples;Min_cycle;Max_cycle;Signal;HPM_P1;HPM_P2
2024/02/05 00:00:15;;;;;;;24.40;5.35;;;11.00;99.90;;;;;;4949904;28;20394;-81
2024/02/05 00:02:42;;;;;;;25.33;5.78;;;10.90;99.90;;;;;;4934068;28;20046;-82
2024/02/05 00:05:10;;;;;;;22.35;5.47;;;10.90;99.90;;;;;;4964355;28;20046;-81
2024/02/05 00:07:36;;;;;;;19.85;4.93;;;10.90;99.90;;;;;;4964021;28;20039;-82
2024/02/05 00:10:07;;;;;;;28.58;6.53;;;10.90;99.90;;;;;;4965092;28;20032;-82
2024/02/05 00:12:33;;;;;;;24.80;5.10;;;10.90;99.90;;;;;;4965665;28;20511;-81
2024/02/05 00:15:00;;;;;;;25.50;5.43;;;10.90;99.90;;;;;;4933978;28;20047;-82
2024/02/05 00:17:27;;;;;;;35.15;6.97;;;10.90;99.90;;;;;;4947281;28;20031;-81
2024/02/05 00:19:53;;;;;;;26.30;5.00;;;10.90;99.90;;;;;;4949611;28;20035;-81
2024/02/05 00:22:19;;;;;;;26.90;5.57;;;10.90;99.90;;;;;;4933042;28;20069;-82
2024/02/05 00:24:46;;;;;;;31.88;6.75;;;10.90;99.90;;;;;;4951777;28;20046;-80
2024/02/05 00:27:12;;;;;;;28.33;5.60;;;10.80;99.90;;;;;;4964541;28;20085;-82
2024/02/05 00:29:38;;;;;;;30.88;5.95;;;10.80;99.90;;;;;;4951014;28;20406;-81
2024/02/05 00:32:05;;;;;;;25.52;6.28;;;10.80;99.90;;;;;;4936170;28;20042;-81
2024/02/05 00:34:31;;;;;;;30.13;5.80;;;10.80;99.90;;;;;;4951195;28;20438;-82
2024/02/05 00:36:58;;;;;;;29.92;6.47;;;10.80;99.90;;;;;;4935280;28;20279;-81
2024/02/05 00:39:24;;;;;;;30.90;5.75;;;10.80;99.90;;;;;;4934588;28;20498;-80
2024/02/05 00:41:51;;;;;;;25.05;5.82;;;10.80;99.90;;;;;;4949217;28;20043;-81
2024/02/05 00:44:17;;;;;;;26.30;6.00;;;10.70;99.90;;;;;;4949879;28;20039;-81
2024/02/05 00:46:43;;;;;;;36.47;6.85;;;10.70;99.90;;;;;;4949294;28;20399;-81
2024/02/05 00:49:10;;;;;;;36.70;7.15;;;10.70;99.90;;;;;;4949581;28;20050;-82
2024/02/05 00:51:36;;;;;;;25.08;5.95;;;10.70;99.90;;;;;;4965749;28;20031;-82
2024/02/05 00:54:03;;;;;;;35.50;6.47;;;10.70;99.90;;;;;;4950402;28;20046;-81
2024/02/05 00:56:29;;;;;;;29.38;6.28;;;10.70;99.90;;;;;;4932755;28;20031;-81
2024/02/05 00:58:56;;;;;;;33.28;6.57;;;10.70;99.90;;;;;;4934110;28;20050;-82
2024/02/05 01:01:22;;;;;;;37.00;7.35;;;10.70;99.90;;;;;;4964309;28;20041;-82
2024/02/05 01:03:48;;;;;;;28.95;6.32;;;10.70;99.90;;;;;;4962636;28;20071;-82
2024/02/05 01:06:15;;;;;;;27.48;7.03;;;10.70;99.90;;;;;;4964355;28;20043;-81
2024/02/05 01:08:41;;;;;;;35.05;7.50;;;10.70;99.90;;;;;;4963562;28;20042;-81
2024/02/05 01:11:07;;;;;;;33.90;6.97;;;10.70;99.90;;;;;;4949444;28;20062;-82
2024/02/05 01:13:34;;;;;;;24.63;6.28;;;10.70;99.90;;;;;;4964475;28;20039;-81
2024/02/05 01:16:02;;;;;;;35.67;6.57;;;10.60;99.90;;;;;;4949597;28;20031;-82
2024/02/05 01:18:28;;;;;;;35.38;6.55;;;10.70;99.90;;;;;;4947418;28;20035;-82
2024/02/05 01:20:55;;;;;;;31.92;5.97;;;10.70;99.90;;;;;;4964627;28;20642;-81
2024/02/05 01:23:21;;;;;;;29.30;6.13;;;10.70;99.90;;;;;;4948136;28;20035;-82
2024/02/05 01:25:47;;;;;;;26.52;6.82;;;10.70;99.90;;;;;;4948455;28;20039;-81
2024/02/05 01:28:14;;;;;;;29.05;6.85;;;10.70;99.90;;;;;;4964856;28;20491;-81
2024/02/05 01:30:43;;;;;;;33.42;6.18;;;10.70;99.90;;;;;;4962605;28;20042;-82
2024/02/05 01:33:12;;;;;;;25.85;6.55;;;10.70;99.90;;;;;;4947305;28;20039;-81
2024/02/05 01:35:39;;;;;;;27.88;6.22;;;10.60;99.90;;;;;;4948387;28;20050;-81
2024/02/05 01:38:05;;;;;;;25.27;5.35;;;10.60;99.90;;;;;;4930216;28;20918;-81
2024/02/05 01:40:34;;;;;;;29.30;6.75;;;10.60;99.90;;;;;;4948823;28;20043;-82
2024/02/05 01:43:01;;;;;;;25.95;5.13;;;10.60;99.90;;;;;;4930739;28;20058;-83
2024/02/05 01:45:27;;;;;;;28.25;6.32;;;10.60;99.90;;;;;;4934346;28;20514;-82
2024/02/05 01:47:53;;;;;;;30.83;5.35;;;10.60;99.90;;;;;;4963703;28;20491;-83
2024/02/05 01:50:20;;;;;;;25.50;5.22;;;10.60;99.90;;;;;;4948297;28;20626;-83
2024/02/05 01:52:50;;;;;;;27.30;5.88;;;10.50;99.90;;;;;;4948221;28;20039;-82
2024/02/05 01:55:21;;;;;;;22.80;5.72;;;10.50;99.90;;;;;;4962730;28;20418;-82
2024/02/05 01:57:50;;;;;;;36.50;7.38;;;10.50;99.90;;;;;;4979128;28;20039;-82
2024/02/05 02:00:17;;;;;;;33.72;6.70;;;10.50;99.90;;;;;;4961963;28;20039;-83
2024/02/05 02:02:44;;;;;;;30.83;6.05;;;10.50;99.90;;;;;;4932535;28;20506;-83
2024/02/05 02:05:11;;;;;;;35.78;6.70;;;10.50;99.90;;;;;;4963317;28;20502;-82
2024/02/05 02:07:38;;;;;;;28.52;6.50;;;10.50;99.90;;;;;;4959368;28;20062;-82
2024/02/05 02:10:06;;;;;;;36.75;7.38;;;10.50;99.90;;;;;;4960583;28;20797;-82
2024/02/05 02:12:33;;;;;;;33.53;6.47;;;10.50;99.90;;;;;;4962680;28;20430;-82
2024/02/05 02:14:59;;;;;;;33.47;6.25;;;10.40;99.90;;;;;;4978731;28;20066;-83
2024/02/05 02:17:29;;;;;;;19.73;5.55;;;10.40;99.90;;;;;;4945824;28;20053;-83
2024/02/05 02:19:56;;;;;;;26.67;5.85;;;10.40;99.90;;;;;;4947880;28;20055;-82
2024/02/05 02:22:36;;;;;;;32.80;6.50;;;10.40;99.90;;;;;;4962689;28;20042;-82
2024/02/05 02:25:03;;;;;;;26.13;6.03;;;10.30;99.90;;;;;;4981092;28;20145;-82
2024/02/05 02:27:30;;;;;;;32.65;7.32;;;10.30;99.90;;;;;;4932124;28;20039;-83
2024/02/05 02:29:57;;;;;;;35.65;6.40;;;10.20;99.90;;;;;;4946572;28;20043;-82
2024/02/05 02:32:40;;;;;;;35.53;6.25;;;10.20;99.90;;;;;;4945361;28;20043;-83
2024/02/05 02:35:14;;;;;;;30.30;6.38;;;10.20;99.90;;;;;;4962966;28;20415;-82
2024/02/05 02:37:50;;;;;;;33.85;6.47;;;10.10;99.90;;;;;;4945371;28;20051;-82
2024/02/05 02:40:19;;;;;;;28.95;6.32;;;10.10;99.90;;;;;;4929229;28;20046;-82
2024/02/05 02:42:50;;;;;;;33.92;6.80;;;10.10;99.90;;;;;;4962441;28;20035;-82
2024/02/05 02:45:17;;;;;;;37.30;7.68;;;10.10;99.90;;;;;;4961333;28;20380;-81
2024/02/05 02:47:44;;;;;;;24.48;5.57;;;10.10;99.90;;;;;;4961445;28;20038;-82
2024/02/05 02:50:10;;;;;;;36.88;6.40;;;10.10;99.90;;;;;;4946538;28;20046;-83
2024/02/05 02:52:37;;;;;;;33.60;7.30;;;10.20;99.90;;;;;;4962194;28;20582;-84
2024/02/05 02:55:04;;;;;;;30.15;7.28;;;10.20;99.90;;;;;;4963627;28;20405;-82
2024/02/05 02:57:30;;;;;;;33.78;7.32;;;10.10;99.90;;;;;;4948297;28;20434;-82
2024/02/05 02:59:56;;;;;;;29.92;6.82;;;10.10;99.90;;;;;;4932696;28;20525;-83
2024/02/05 03:02:24;;;;;;;31.95;8.05;;;10.10;99.90;;;;;;4961692;28;20043;-82
2024/02/05 03:04:53;;;;;;;34.92;7.03;;;10.10;99.90;;;;;;4948139;28;20058;-81
2024/02/05 03:07:19;;;;;;;36.17;7.55;;;10.10;99.90;;;;;;4945647;28;20039;-83
2024/02/05 03:09:45;;;;;;;35.20;8.10;;;10.10;99.90;;;;;;4963036;28;20031;-82
2024/02/05 03:12:12;;;;;;;31.35;8.20;;;10.10;99.90;;;;;;4963251;28;20051;-83
2024/02/05 03:14:38;;;;;;;30.45;7.53;;;10.10;99.90;;;;;;4931631;28;20039;-82
2024/02/05 03:17:05;;;;;;;39.78;8.20;;;10.10;99.90;;;;;;4960050;28;20688;-80
2024/02/05 03:19:33;;;;;;;37.17;9.05;;;10.10;99.90;;;;;;4962338;28;20035;-82
2024/02/05 03:22:00;;;;;;;41.85;9.52;;;10.10;99.90;;;;;;4980997;28;20032;-83
2024/02/05 03:24:26;;;;;;;36.92;7.50;;;10.10;99.90;;;;;;4947307;28;20445;-83
2024/02/05 03:26:53;;;;;;;32.50;8.55;;;10.10;99.90;;;;;;4931075;28;20035;-84
2024/02/05 03:29:19;;;;;;;42.35;9.40;;;10.10;99.90;;;;;;4946374;28;20035;-83
2024/02/05 03:31:46;;;;;;;34.92;7.30;;;10.10;99.90;;;;;;4948775;28;20039;-83
2024/02/05 03:34:12;;;;;;;39.42;8.48;;;10.10;99.90;;;;;;4948460;28;20394;-83
2024/02/05 03:36:38;;;;;;;33.13;9.10;;;10.10;99.90;;;;;;4961272;28;20039;-82
2024/02/05 03:39:05;;;;;;;40.35;9.30;;;10.10;99.90;;;;;;4978952;28;20054;-82
2024/02/05 03:41:31;;;;;;;35.72;8.25;;;10.10;99.90;;;;;;4980070;28;20039;-82
2024/02/05 03:43:58;;;;;;;33.25;8.00;;;10.10;99.90;;;;;;4948143;28;20050;-83
2024/02/05 03:46:24;;;;;;;30.70;8.00;;;10.10;99.90;;;;;;4927146;28;20044;-82
2024/02/05 03:48:54;;;;;;;32.08;8.10;;;10.10;99.90;;;;;;4962351;28;20035;-83
2024/02/05 03:51:21;;;;;;;33.42;7.93;;;10.10;99.90;;;;;;4947169;28;20035;-83
2024/02/05 03:53:49;;;;;;;36.50;8.00;;;10.10;99.90;;;;;;4960599;28;20498;-83
2024/02/05 03:56:18;;;;;;;27.92;7.60;;;10.20;99.90;;;;;;4962542;28;20054;-83
2024/02/05 03:58:45;;;;;;;33.10;10.25;;;10.10;99.90;;;;;;4977186;28;20050;-83
2024/02/05 04:01:11;;;;;;;36.45;8.45;;;10.10;99.90;;;;;;4947530;28;20083;-83
2024/02/05 04:03:37;;;;;;;27.80;6.88;;;10.10;99.90;;;;;;4961686;28;20427;-82
2024/02/05 04:06:04;;;;;;;40.28;8.85;;;10.20;99.90;;;;;;4930483;28;20043;-83
2024/02/05 04:08:30;;;;;;;32.55;7.80;;;10.10;99.90;;;;;;4929341;28;20050;-83
2024/02/05 04:10:56;;;;;;;32.75;8.70;;;10.10;99.90;;;;;;4960373;28;20677;-82
2024/02/05 04:13:23;;;;;;;32.60;8.32;;;10.10;99.90;;;;;;4960108;28;20039;-82
2024/02/05 04:15:49;;;;;;;33.00;8.82;;;10.10;99.90;;;;;;4961331;28;20039;-83
2024/02/05 04:18:15;;;;;;;31.20;9.25;;;10.10;99.90;;;;;;4960948;28;20031;-82
2024/02/05 04:20:42;;;;;;;36.45;9.20;;;10.10;99.90;;;;;;4969029;28;20117;-82
2024/02/05 04:23:09;;;;;;;26.08;7.22;;;10.10;99.90;;;;;;4951502;28;20507;-83
2024/02/05 04:25:35;;;;;;;40.22;8.95;;;10.10;99.90;;;;;;4946882;28;20039;-83
2024/02/05 04:28:02;;;;;;;30.38;8.13;;;10.10;99.90;;;;;;4958705;28;20510;-83
2024/02/05 04:30:29;;;;;;;36.10;10.05;;;10.10;99.90;;;;;;4946093;28;20050;-83
2024/02/05 04:32:56;;;;;;;33.10;7.95;;;10.10;99.90;;;;;;4967234;28;20043;-82
2024/02/05 04:35:22;;;;;;;29.35;8.40;;;10.10;99.90;;;;;;4951786;28;20499;-83
2024/02/05 04:37:49;;;;;;;36.63;8.13;;;10.20;99.90;;;;;;4949922;28;20043;-83
2024/02/05 04:40:15;;;;;;;30.15;8.88;;;10.10;99.90;;;;;;4934017;28;20035;-83
2024/02/05 04:42:42;;;;;;;26.90;7.82;;;10.10;99.90;;;;;;4964620;28;20487;-83
2024/02/05 04:45:08;;;;;;;38.03;8.13;;;10.10;99.90;;;;;;4947960;28;20039;-82
2024/02/05 04:47:34;;;;;;;25.58;7.20;;;10.10;99.90;;;;;;4929233;28;20050;-84
2024/02/05 04:50:01;;;;;;;32.15;7.13;;;10.10;99.90;;;;;;4948940;28;20040;-82
2024/02/05 04:52:27;;;;;;;31.05;8.73;;;10.10;99.90;;;;;;4932679;28;20487;-83
2024/02/05 04:54:54;;;;;;;29.83;9.13;;;10.10;99.90;;;;;;4947895;28;20062;-82
2024/02/05 04:57:20;;;;;;;35.75;8.50;;;10.10;99.90;;;;;;4946609;28;20054;-82
2024/02/05 04:59:48;;;;;;;33.33;7.82;;;10.10;99.90;;;;;;4965322;28;20039;-82
2024/02/05 05:02:14;;;;;;;32.25;9.00;;;10.10;99.90;;;;;;4918957;28;20035;-83
2024/02/05 05:04:42;;;;;;;32.58;7.65;;;10.10;99.90;;;;;;4945962;28;20406;-82
2024/02/05 05:07:09;;;;;;;35.28;9.02;;;10.00;99.90;;;;;;4960602;28;20050;-83
2024/02/05 05:09:35;;;;;;;31.63;7.95;;;10.10;99.90;;;;;;4933776;28;20042;-83
2024/02/05 05:12:02;;;;;;;31.90;7.40;;;10.00;99.90;;;;;;4932183;28;20513;-83
2024/02/05 05:14:28;;;;;;;27.70;7.93;;;10.00;99.90;;;;;;4949778;28;20487;-83
2024/02/05 05:16:55;;;;;;;28.80;7.70;;;10.00;99.90;;;;;;4930201;28;20036;-83
2024/02/05 05:19:21;;;;;;;31.23;7.10;;;10.00;99.90;;;;;;4964582;28;20060;-83
2024/02/05 05:21:47;;;;;;;25.08;7.03;;;10.00;99.90;;;;;;4964871;28;20495;-83
2024/02/05 05:24:14;;;;;;;32.88;6.80;;;10.00;99.90;;;;;;4961269;28;20922;-84
2024/02/05 05:26:40;;;;;;;31.00;7.57;;;10.00;99.90;;;;;;4929859;28;20046;-83
2024/02/05 05:29:06;;;;;;;34.45;6.60;;;10.00;99.90;;;;;;4947905;28;20513;-83
2024/02/05 05:31:33;;;;;;;28.70;7.90;;;10.00;99.90;;;;;;4962341;28;20032;-83
2024/02/05 05:33:59;;;;;;;24.75;7.07;;;10.00;99.90;;;;;;4934340;28;20478;-82
2024/02/05 05:36:25;;;;;;;28.05;7.53;;;9.90;99.90;;;;;;4960084;28;20027;-82
2024/02/05 05:38:52;;;;;;;28.25;6.35;;;9.90;99.90;;;;;;4933272;28;20042;-83
2024/02/05 05:41:19;;;;;;;34.05;7.50;;;9.90;99.90;;;;;;4933452;28;20036;-83
2024/02/05 05:43:45;;;;;;;28.52;6.97;;;9.90;99.90;;;;;;4948318;28;21209;-82
2024/02/05 05:46:11;;;;;;;33.58;7.95;;;9.90;99.90;;;;;;4947049;28;20035;-83
2024/02/05 05:48:38;;;;;;;35.53;6.88;;;9.90;99.90;;;;;;4962424;28;20039;-83
2024/02/05 05:51:04;;;;;;;33.90;7.22;;;9.90;99.90;;;;;;4950640;28;20507;-83
2024/02/05 05:53:30;;;;;;;41.92;8.57;;;9.90;99.90;;;;;;4962953;28;20035;-84
2024/02/05 05:55:57;;;;;;;33.92;7.22;;;9.90;99.90;;;;;;4929255;28;20043;-84
2024/02/05 05:58:24;;;;;;;36.63;7.70;;;9.90;99.90;;;;;;4960840;28;20084;-84
2024/02/05 06:00:50;;;;;;;33.55;6.53;;;9.90;99.90;;;;;;4931406;28;20281;-84
2024/02/05 06:03:16;;;;;;;26.02;5.97;;;9.90;99.90;;;;;;4962415;28;20803;-84
2024/02/05 06:05:45;;;;;;;23.45;7.07;;;9.90;99.90;;;;;;4948011;28;20054;-83
2024/02/05 06:08:13;;;;;;;26.90;6.25;;;9.90;99.90;;;;;;4947039;28;20391;-83
2024/02/05 06:10:40;;;;;;;30.25;6.15;;;9.90;99.90;;;;;;4934745;28;20035;-83
2024/02/05 06:13:07;;;;;;;41.40;6.78;;;9.90;99.90;;;;;;4964837;28;22528;-83
2024/02/05 06:15:33;;;;;;;27.95;5.90;;;9.90;99.90;;;;;;4964769;28;20043;-83
2024/02/05 06:17:59;;;;;;;30.35;5.95;;;9.90;99.90;;;;;;4962420;28;20036;-83
2024/02/05 06:20:26;;;;;;;30.17;7.13;;;9.80;99.90;;;;;;4949637;28;20039;-83
2024/02/05 06:22:52;;;;;;;29.27;6.72;;;9.80;99.90;;;;;;4933692;28;20042;-84
2024/02/05 06:25:18;;;;;;;28.73;7.20;;;9.80;99.90;;;;;;4949627;28;20031;-83
2024/02/05 06:27:45;;;;;;;26.08;6.53;;;9.80;99.90;;;;;;4960937;28;20577;-83
2024/02/05 06:30:12;;;;;;;33.20;7.00;;;9.80;99.90;;;;;;4932986;28;20034;-83
2024/02/05 06:32:38;;;;;;;27.95;6.38;;;9.80;99.90;;;;;;4932804;28;20064;-83
2024/02/05 06:35:05;;;;;;;31.60;7.30;;;9.80;99.90;;;;;;4964149;28;20042;-83
2024/02/05 06:37:31;;;;;;;28.63;6.25;;;9.80;99.90;;;;;;4930073;28;22215;-83
2024/02/05 06:39:57;;;;;;;34.03;7.60;;;9.80;99.90;;;;;;4947161;28;20039;-83
2024/02/05 06:42:24;;;;;;;23.63;6.38;;;9.80;99.90;;;;;;4961595;28;20406;-82
2024/02/05 06:44:51;;;;;;;31.63;7.70;;;9.80;99.90;;;;;;4963123;28;20415;-83
2024/02/05 06:47:18;;;;;;;30.17;6.53;;;9.80;99.90;;;;;;4961023;28;20058;-83
2024/02/05 06:49:44;;;;;;;17.38;4.78;;;9.80;99.90;;;;;;4931273;28;20348;-82
2024/02/05 06:52:10;;;;;;;30.13;7.40;;;9.80;99.90;;;;;;4949607;28;20035;-83
2024/02/05 06:54:36;;;;;;;30.88;6.80;;;9.80;99.90;;;;;;4962240;28;20505;-82
2024/02/05 06:57:03;;;;;;;34.97;7.50;;;9.70;99.90;;;;;;4961340;28;20038;-83
2024/02/05 06:59:30;;;;;;;26.00;7.10;;;9.70;99.90;;;;;;4963191;28;20039;-82
2024/02/05 07:01:56;;;;;;;32.05;6.75;;;9.70;99.90;;;;;;4961239;28;20502;-82
2024/02/05 07:04:23;;;;;;;27.05;6.20;;;9.70;99.90;;;;;;4959936;28;20644;-82
2024/02/05 07:06:49;;;;;;;28.77;5.80;;;9.70;99.90;;;;;;4928621;28;20031;-82
2024/02/05 07:09:16;;;;;;;29.77;6.32;;;9.70;99.90;;;;;;4947841;28;20043;-83
2024/02/05 07:11:42;;;;;;;28.25;7.53;;;9.70;99.90;;;;;;4929770;28;20051;-83
2024/02/05 07:14:09;;;;;;;27.80;7.45;;;9.80;99.90;;;;;;4989969;28;20039;-82
2024/02/05 07:16:35;;;;;;;35.22;6.90;;;9.70;99.90;;;;;;4961913;28;20446;-82
2024/02/05 07:19:01;;;;;;;33.60;7.53;;;9.70;99.90;;;;;;4930151;28;20039;-83
2024/02/05 07:21:29;;;;;;;28.20;6.90;;;9.70;99.90;;;;;;4930227;28;20066;-83
2024/02/05 07:23:56;;;;;;;26.73;6.00;;;9.70;99.90;;;;;;4945198;28;20043;-83
2024/02/05 07:26:22;;;;;;;28.48;6.75;;;9.70;99.90;;;;;;4975697;28;21300;-83
2024/02/05 07:28:49;;;;;;;34.38;7.45;;;9.70;99.90;;;;;;4959855;28;20406;-82
2024/02/05 07:31:15;;;;;;;28.13;6.65;;;9.70;99.90;;;;;;4960722;28;20474;-82
2024/02/05 07:33:41;;;;;;;30.23;7.10;;;9.70;99.90;;;;;;4962175;28;20043;-83
2024/02/05 07:36:09;;;;;;;28.23;8.07;;;9.70;99.90;;;;;;4983987;28;20085;-83
2024/02/05 07:38:38;;;;;;;31.45;6.55;;;9.70;99.90;;;;;;4952143;28;20039;-82
2024/02/05 07:41:05;;;;;;;32.33;6.85;;;9.70;99.90;;;;;;4961688;28;20042;-82
2024/02/05 07:43:32;;;;;;;25.48;5.65;;;9.70;99.90;;;;;;4930143;28;20046;-84
2024/02/05 07:45:59;;;;;;;29.90;6.10;;;9.70;99.90;;;;;;4944598;28;20116;-82
2024/02/05 07:48:27;;;;;;;27.20;5.65;;;9.70;99.90;;;;;;4943296;28;20526;-83
2024/02/05 07:50:54;;;;;;;40.28;7.78;;;9.70;99.90;;;;;;4945247;28;20046;-83
2024/02/05 07:53:21;;;;;;;31.05;7.75;;;9.70;99.90;;;;;;4943963;28;20046;-82
2024/02/05 07:55:48;;;;;;;37.33;7.28;;;9.70;99.90;;;;;;4925929;28;20411;-83
2024/02/05 07:58:14;;;;;;;39.35;7.68;;;9.70;99.90;;;;;;4958643;28;20051;-82
2024/02/05 08:00:40;;;;;;;37.63;7.60;;;9.70;99.90;;;;;;4946294;28;20058;-83
2024/02/05 08:03:07;;;;;;;25.50;6.45;;;9.70;99.90;;;;;;4960399;28;20087;-83
2024/02/05 08:05:33;;;;;;;28.23;6.38;;;9.80;99.90;;;;;;4960311;28;20336;-83
2024/02/05 08:08:00;;;;;;;23.60;6.43;;;9.70;99.90;;;;;;4949154;28;20058;-83
2024/02/05 08:10:27;;;;;;;31.38;6.45;;;9.80;99.90;;;;;;4966039;28;21215;-84
2024/02/05 08:12:53;;;;;;;25.75;6.05;;;9.70;99.90;;;;;;4964442;28;20394;-83
2024/02/05 08:15:19;;;;;;;27.45;6.57;;;9.70;99.90;;;;;;4935241;28;20035;-83
2024/02/05 08:17:46;;;;;;;29.95;6.30;;;9.80;99.90;;;;;;4962441;28;20038;-83
2024/02/05 08:20:13;;;;;;;33.53;7.20;;;9.80;99.90;;;;;;4947397;28;20904;-83
2024/02/05 08:22:40;;;;;;;23.67;6.22;;;9.80;99.90;;;;;;4948011;28;20042;-83
2024/02/05 08:25:07;;;;;;;29.60;6.95;;;9.80;99.90;;;;;;4932512;28;20818;-81
2024/02/05 08:27:33;;;;;;;23.77;6.57;;;9.80;99.90;;;;;;4976081;28;21156;-81
2024/02/05 08:30:01;;;;;;;25.25;5.22;;;9.80;99.90;;;;;;4947560;28;20046;-80
2024/02/05 08:32:27;;;;;;;25.23;5.85;;;9.90;99.90;;;;;;4949937;28;20537;-80
2024/02/05 08:34:55;;;;;;;36.55;8.00;;;9.80;99.90;;;;;;4964697;28;20502;-82
2024/02/05 08:37:22;;;;;;;27.52;6.13;;;9.90;99.90;;;;;;4947975;28;20050;-83
2024/02/05 08:39:48;;;;;;;30.80;7.47;;;9.80;99.90;;;;;;4950576;28;20509;-83
2024/02/05 08:42:15;;;;;;;26.13;5.82;;;9.80;99.90;;;;;;4950666;28;20023;-82
2024/02/05 08:44:41;;;;;;;24.13;5.55;;;9.80;99.90;;;;;;4935581;28;20039;-80
2024/02/05 08:47:10;;;;;;;28.23;6.25;;;9.90;99.90;;;;;;4966046;28;20042;-82
2024/02/05 08:49:37;;;;;;;23.60;6.22;;;9.90;99.90;;;;;;4982547;28;20027;-82
2024/02/05 08:52:03;;;;;;;23.88;5.57;;;9.90;99.90;;;;;;4966732;28;20591;-81
2024/02/05 08:54:31;;;;;;;27.25;7.43;;;9.90;99.90;;;;;;4964552;28;20043;-81
2024/02/05 08:56:58;;;;;;;32.33;6.10;;;9.90;99.90;;;;;;4964214;28;20537;-81
2024/02/05 08:59:24;;;;;;;27.67;6.95;;;9.90;99.90;;;;;;4964901;28;20042;-81
2024/02/05 09:01:51;;;;;;;27.92;7.32;;;9.80;99.90;;;;;;4934519;28;20989;-80
2024/02/05 09:04:17;;;;;;;26.92;6.45;;;9.90;99.90;;;;;;4949181;28;20043;-80
2024/02/05 09:06:43;;;;;;;35.53;8.88;;;9.90;99.90;;;;;;4933189;28;20402;-81
2024/02/05 09:09:10;;;;;;;27.52;6.45;;;9.90;99.90;;;;;;4935351;28;20030;-81
2024/02/05 09:11:37;;;;;;;29.42;6.85;;;9.90;99.90;;;;;;4950209;28;20031;-80
2024/02/05 09:14:03;;;;;;;30.98;6.72;;;10.00;99.90;;;;;;4933816;28;20132;-81
2024/02/05 09:16:30;;;;;;;28.92;7.63;;;10.00;99.90;;;;;;4930079;28;20040;-79
2024/02/05 09:18:56;;;;;;;37.67;10.02;;;10.00;99.90;;;;;;4980322;28;20038;-82
2024/02/05 09:21:22;;;;;;;24.52;8.82;;;9.90;99.90;;;;;;4932758;28;20038;-81
2024/02/05 09:23:48;;;;;;;25.35;9.43;;;9.90;99.90;;;;;;4948706;28;20038;-80
2024/02/05 09:26:15;;;;;;;28.77;8.98;;;10.00;99.90;;;;;;4947309;28;20736;-82
2024/02/05 09:28:43;;;;;;;35.40;11.15;;;9.90;99.90;;;;;;4932602;28;20039;-83
2024/02/05 09:31:11;;;;;;;29.77;11.90;;;10.00;99.90;;;;;;4965373;28;20044;-80
2024/02/05 09:33:37;;;;;;;34.38;11.80;;;10.00;99.90;;;;;;4961992;28;20430;-80
2024/02/05 09:36:05;;;;;;;38.92;13.45;;;10.00;99.90;;;;;;4964875;28;20062;-81
2024/02/05 09:38:32;;;;;;;42.88;13.88;;;10.00;99.90;;;;;;4962284;28;20023;-82
2024/02/05 09:41:05;;;;;;;30.73;11.60;;;10.10;99.90;;;;;;4964233;28;20026;-81
2024/02/05 09:43:32;;;;;;;29.33;11.80;;;10.10;99.90;;;;;;4964736;28;20035;-82
2024/02/05 09:46:10;;;;;;;34.35;11.82;;;10.10;99.90;;;;;;4980991;28;20035;-83
2024/02/05 09:48:38;;;;;;;35.70;11.45;;;10.10;99.90;;;;;;4961628;28;20027;-81
2024/02/05 09:51:05;;;;;;;37.35;10.57;;;10.10;99.90;;;;;;4933453;28;20042;-81
2024/02/05 09:53:32;;;;;;;34.25;10.35;;;10.10;99.90;;;;;;4948453;28;20116;-81
2024/02/05 09:56:01;;;;;;;31.20;11.10;;;10.10;99.90;;;;;;4947742;28;20050;-81
2024/02/05 09:58:30;;;;;;;39.35;11.48;;;10.10;99.90;;;;;;4946398;28;20046;-80
2024/02/05 10:00:57;;;;;;;27.00;10.60;;;10.10;99.90;;;;;;4964063;28;20042;-81
2024/02/05 10:03:30;;;;;;;31.83;11.98;;;10.00;99.90;;;;;;4981112;28;20402;-82
2024/02/05 10:06:04;;;;;;;26.17;10.35;;;10.00;99.90;;;;;;4961525;28;20042;-80
2024/02/05 10:08:33;;;;;;;33.83;10.18;;;10.00;99.90;;;;;;4961730;28;20042;-81
2024/02/05 10:11:03;;;;;;;25.73;9.27;;;10.10;99.90;;;;;;4965302;28;20043;-81
2024/02/05 10:13:30;;;;;;;35.50;9.63;;;10.10;99.90;;;;;;4965178;28;20086;-80
2024/02/05 10:15:56;;;;;;;25.70;8.48;;;10.20;99.90;;;;;;4946515;28;20035;-80
2024/02/05 10:18:22;;;;;;;24.90;7.65;;;10.20;99.90;;;;;;4961136;28;20040;-80
2024/02/05 10:20:49;;;;;;;32.78;8.35;;;10.20;99.90;;;;;;4945419;28;20442;-80
2024/02/05 10:23:15;;;;;;;31.50;7.60;;;10.20;99.90;;;;;;4962286;28;20042;-80
2024/02/05 10:25:41;;;;;;;31.27;7.40;;;10.20;99.90;;;;;;4962321;28;20082;-81
2024/02/05 10:28:08;;;;;;;30.63;8.25;;;10.20;99.90;;;;;;4944794;28;20035;-80
2024/02/05 10:30:34;;;;;;;25.10;6.50;;;10.20;99.90;;;;;;4948047;28;20054;-81
2024/02/05 10:33:03;;;;;;;32.17;7.25;;;10.20;99.90;;;;;;4933134;28;20058;-80
2024/02/05 10:35:30;;;;;;;24.48;6.45;;;10.30;99.90;;;;;;4948044;28;20039;-80
2024/02/05 10:38:10;;;;;;;24.25;6.43;;;10.30;99.90;;;;;;4959889;28;20509;-81
2024/02/05 10:40:37;;;;;;;27.58;7.30;;;10.40;99.90;;;;;;4932261;28;20031;-80
2024/02/05 10:43:04;;;;;;;24.17;5.85;;;10.40;99.90;;;;;;4928705;28;20035;-80
2024/02/05 10:45:34;;;;;;;27.63;7.85;;;10.40;99.90;;;;;;4947019;28;20046;-79
2024/02/05 10:48:01;;;;;;;24.77;6.55;;;10.40;99.90;;;;;;4960904;28;20062;-81
2024/02/05 10:50:27;;;;;;;22.23;4.95;;;10.40;99.90;;;;;;4962886;28;20386;-78
2024/02/05 10:52:54;;;;;;;28.17;5.78;;;10.50;99.90;;;;;;4948221;28;20498;-81
2024/02/05 10:55:20;;;;;;;21.15;5.80;;;10.50;99.90;;;;;;4948273;28;20735;-81
2024/02/05 10:57:48;;;;;;;26.13;6.82;;;10.50;99.90;;;;;;4948260;28;20051;-81
2024/02/05 11:00:18;;;;;;;24.60;5.78;;;10.60;99.90;;;;;;4949003;28;20047;-81
2024/02/05 11:02:55;;;;;;;28.40;6.20;;;10.60;99.90;;;;;;4946555;28;20062;-82
2024/02/05 11:05:24;;;;;;;25.85;5.93;;;10.60;99.90;;;;;;4948341;28;20039;-80
2024/02/05 11:08:15;;;;;;;23.02;4.78;;;10.60;99.90;;;;;;4961280;28;20522;-81
2024/02/05 11:10:46;;;;;;;20.05;4.95;;;10.60;99.90;;;;;;4947880;28;20062;-80
2024/02/05 11:13:18;;;;;;;32.83;5.90;;;10.60;99.90;;;;;;4945641;28;20058;-81
2024/02/05 11:15:47;;;;;;;39.08;6.38;;;10.60;99.90;;;;;;4979669;28;20058;-81
2024/02/05 11:18:24;;;;;;;21.90;5.68;;;10.60;99.90;;;;;;4948203;28;20045;-81
2024/02/05 11:20:52;;;;;;;28.27;4.53;;;10.70;99.90;;;;;;4934112;28;20486;-80
2024/02/05 11:23:20;;;;;;;24.02;5.30;;;10.70;99.90;;;;;;4982688;28;20061;-80
2024/02/05 11:25:49;;;;;;;30.90;5.93;;;10.70;99.90;;;;;;4961347;28;20039;-81
2024/02/05 11:28:16;;;;;;;33.05;7.03;;;10.80;99.90;;;;;;4915741;28;20034;-82
2024/02/05 11:30:43;;;;;;;23.75;5.45;;;10.90;99.90;;;;;;4932048;28;20063;-80
2024/02/05 11:33:11;;;;;;;31.08;6.22;;;10.90;99.90;;;;;;4947980;28;20035;-80
2024/02/05 11:35:50;;;;;;;23.70;6.03;;;10.90;99.90;;;;;;4930533;28;20558;-79
2024/02/05 11:38:21;;;;;;;33.80;7.15;;;11.10;99.90;;;;;;4962267;28;20031;-79
2024/02/05 11:40:52;;;;;;;23.77;5.63;;;11.10;99.90;;;;;;4946995;28;20041;-80
2024/02/05 11:43:23;;;;;;;33.17;6.43;;;11.20;99.90;;;;;;4961250;28;20835;-79
2024/02/05 11:45:53;;;;;;;20.88;5.40;;;11.10;99.90;;;;;;4932172;28;20047;-79
2024/02/05 11:48:20;;;;;;;25.02;5.35;;;11.20;99.90;;;;;;4958516;28;20027;-80
2024/02/05 11:50:47;;;;;;;27.10;5.45;;;11.20;99.90;;;;;;4931299;28;20050;-79
2024/02/05 11:53:19;;;;;;;26.33;6.13;;;11.30;99.90;;;;;;4949311;28;20039;-79
2024/02/05 11:55:46;;;;;;;26.25;5.78;;;11.30;99.90;;;;;;4959942;28;20050;-79
2024/02/05 11:58:12;;;;;;;27.08;5.82;;;11.30;99.90;;;;;;4929076;28;20062;-79
2024/02/05 12:00:39;;;;;;;28.08;6.35;;;11.40;99.90;;;;;;4962178;28;20044;-79
2024/02/05 12:03:06;;;;;;;28.70;7.43;;;11.40;99.90;;;;;;4914331;28;21152;-79
2024/02/05 12:05:33;;;;;;;24.92;6.90;;;11.40;99.90;;;;;;4944634;28;20035;-78
2024/02/05 12:08:03;;;;;;;27.27;6.55;;;11.40;99.90;;;;;;4927272;28;20042;-79
2024/02/05 12:10:30;;;;;;;24.25;5.90;;;11.40;99.90;;;;;;4946205;28;20577;-78
2024/02/05 12:12:56;;;;;;;26.48;7.43;;;11.40;99.90;;;;;;4945123;28;20395;-79
2024/02/05 12:15:27;;;;;;;26.92;6.70;;;11.40;99.90;;;;;;4944421;28;21015;-79
2024/02/05 12:18:01;;;;;;;29.55;6.32;;;11.50;99.90;;;;;;4958305;28;20399;-78
2024/02/05 12:20:27;;;;;;;30.35;6.55;;;11.60;99.90;;;;;;4945936;28;20465;-78
2024/02/05 12:22:54;;;;;;;27.02;7.70;;;11.60;99.90;;;;;;4942950;28;20042;-79
2024/02/05 12:25:21;;;;;;;32.88;8.90;;;11.70;99.90;;;;;;4961261;28;20046;-79
2024/02/05 12:27:47;;;;;;;29.23;8.07;;;11.70;99.90;;;;;;4926716;28;20027;-79
2024/02/05 12:30:15;;;;;;;26.95;6.80;;;11.70;99.90;;;;;;4944140;28;20055;-78
2024/02/05 12:32:44;;;;;;;19.95;5.78;;;11.80;99.90;;;;;;4928574;28;20036;-78
2024/02/05 12:35:14;;;;;;;23.73;5.68;;;11.80;99.90;;;;;;4958906;28;20047;-79
2024/02/05 12:37:42;;;;;;;19.13;5.45;;;11.80;99.90;;;;;;4957498;28;20482;-79